Time;durP1;ratioP1;P1;durP2;ratioP2;P2;SDS_P1;SDS_P2;PMS_P1;PMS_P2;Temp;Humidity;BMP_temperature;BMP_pressure;BME280_temperature;BME280_humidity;BME280_pressure;Samples;Min_cycle;Max_cycle;Signal;HPM_P1;HPM_P2
2023/09/29 00:01:17;;;;;;;;;;;;;;;18.64;100.00;98298.41;5113475;28;19972;-66
2023/09/29 00:03:45;;;;;;;;;;;;;;;18.65;100.00;98297.31;5115303;28;19968;-66
2023/09/29 00:06:11;;;;;;;;;;;;;;;18.66;100.00;98296.22;5122028;28;19932;-66
2023/09/29 00:08:37;;;;;;;;;;;;;;;18.67;100.00;98298.59;5121190;28;19924;-66
2023/09/29 00:11:04;;;;;;;;;;;;;;;18.67;100.00;98303.19;5117864;28;19924;-66
2023/09/29 00:13:30;;;;;;;;;;;;;;;18.67;100.00;98297.78;5122459;28;19924;-66
2023/09/29 00:15:58;;;;;;;;;;;;;;;18.67;100.00;98298.59;5122197;28;19925;-66
2023/09/29 00:18:25;;;;;;;;;;;;;;;18.65;100.00;98295.41;5122729;28;19925;-67
2023/09/29 00:20:51;;;;;;;;;;;;;;;18.64;100.00;98293.78;5122521;28;19967;-67
2023/09/29 00:23:18;;;;;;;;;;;;;;;18.65;100.00;98289.19;5117085;28;19927;-67
2023/09/29 00:25:45;;;;;;;;;;;;;;;18.62;100.00;98284.38;5118752;28;19924;-67
2023/09/29 00:28:11;;;;;;;;;;;;;;;18.61;100.00;98283.59;5121494;28;19935;-67
2023/09/29 00:30:38;;;;;;;;;;;;;;;18.61;100.00;98280.06;5121559;28;19924;-68
2023/09/29 00:33:06;;;;;;;;;;;;;;;18.57;100.00;98277.19;5122894;28;19927;-68
2023/09/29 00:35:33;;;;;;;;;;;;;;;18.57;100.00;98289.94;5099913;28;19927;-67
2023/09/29 00:38:00;;;;;;;;;;;;;;;18.57;100.00;98292.63;5116516;28;19991;-67
2023/09/29 00:40:26;;;;;;;;;;;;;;;18.57;100.00;98292.63;5120687;28;19966;-67
2023/09/29 00:42:53;;;;;;;;;;;;;;;18.53;100.00;98291.63;5121346;28;19975;-66
2023/09/29 00:45:23;;;;;;;;;;;;;;;18.49;100.00;98291.44;5119194;28;19973;-67
2023/09/29 00:47:50;;;;;;;;;;;;;;;18.49;100.00;98286.03;5108916;28;19920;-67
2023/09/29 00:50:19;;;;;;;;;;;;;;;18.50;100.00;98279.53;5121066;28;19948;-67
2023/09/29 00:52:47;;;;;;;;;;;;;;;18.50;100.00;98287.63;5103163;28;19942;-67
2023/09/29 00:55:15;;;;;;;;;;;;;;;18.49;100.00;98283.31;5122478;28;19928;-67
2023/09/29 00:57:43;;;;;;;;;;;;;;;18.49;100.00;98283.31;5119723;28;19935;-67
2023/09/29 01:00:15;;;;;;;;;;;;;;;18.49;100.00;98282.50;5116361;28;19953;-65
2023/09/29 01:02:43;;;;;;;;;;;;;;;18.46;100.00;98285.81;5118462;28;19924;-67
2023/09/29 01:05:10;;;;;;;;;;;;;;;18.44;100.00;98280.72;5120962;28;19924;-67
2023/09/29 01:07:38;;;;;;;;;;;;;;;18.41;100.00;98284.03;5122580;28;19924;-67
2023/09/29 01:10:05;;;;;;;;;;;;;;;18.43;100.00;98281.00;5121011;28;19932;-67
2023/09/29 01:12:34;;;;;;;;;;;;;;;18.39;100.00;98280.00;5117535;28;19931;-66
2023/09/29 01:15:00;;;;;;;;;;;;;;;18.39;100.00;98280.81;5115443;28;20058;-67
2023/09/29 01:17:27;;;;;;;;;;;;;;;18.39;100.00;98272.69;5104195;28;19931;-66
2023/09/29 01:19:54;;;;;;;;;;;;;;;18.39;100.00;98271.88;5122018;28;19987;-66
2023/09/29 01:22:21;;;;;;;;;;;;;;;18.37;100.00;98271.41;5116186;28;20565;-67
2023/09/29 01:24:48;;;;;;;;;;;;;;;18.34;100.00;98272.81;5117085;28;19956;-67
2023/09/29 01:27:15;;;;;;;;;;;;;;;18.31;100.00;98268.81;5120681;28;19935;-67
2023/09/29 01:29:43;;;;;;;;;;;;;;;18.31;100.00;98270.72;5120794;28;19924;-67
2023/09/29 01:32:11;;;;;;;;;;;;;;;18.28;100.00;98279.44;5121927;28;19958;-67
2023/09/29 01:34:38;;;;;;;;;;;;;;;18.28;100.00;98290.25;5118614;28;19956;-67
2023/09/29 01:37:04;;;;;;;;;;;;;;;18.26;100.00;98287.84;5115201;28;20388;-67
2023/09/29 01:39:31;;;;;;;;;;;;;;;18.23;100.00;98276.81;5119054;28;19935;-68
2023/09/29 01:42:00;;;;;;;;;;;;;;;18.26;100.00;98274.31;5120207;28;19924;-67
2023/09/29 01:44:26;;;;;;;;;;;;;;;18.28;100.00;98274.84;5121044;28;19924;-67
2023/09/29 01:46:53;;;;;;;;;;;;;;;18.18;100.00;98275.06;5104237;28;19924;-67
2023/09/29 01:49:20;;;;;;;;;;;;;;;18.20;100.00;98277.44;5119270;28;19923;-67
2023/09/29 01:51:46;;;;;;;;;;;;;;;18.23;100.00;98277.63;5117103;28;19920;-67
2023/09/29 01:54:12;;;;;;;;;;;;;;;18.23;100.00;98287.66;5120216;28;19924;-67
2023/09/29 01:56:39;;;;;;;;;;;;;;;18.21;100.00;98281.75;5121292;28;19931;-67
2023/09/29 01:59:06;;;;;;;;;;;;;;;18.19;100.00;98282.06;5120436;28;20022;-67
2023/09/29 02:01:36;;;;;;;;;;;;;;;18.16;100.00;98279.97;5116438;28;19930;-67
2023/09/29 02:04:03;;;;;;;;;;;;;;;18.16;100.00;98279.97;5115089;28;19924;-67
2023/09/29 02:06:29;;;;;;;;;;;;;;;18.14;100.00;98290.25;5118904;28;19924;-67
2023/09/29 02:08:56;;;;;;;;;;;;;;;18.14;100.00;98289.47;5119901;28;20281;-67
2023/09/29 02:11:23;;;;;;;;;;;;;;;18.13;100.00;98293.28;5115784;28;20027;-67
2023/09/29 02:13:49;;;;;;;;;;;;;;;18.10;100.00;98294.69;5115730;28;20299;-67
2023/09/29 02:16:17;;;;;;;;;;;;;;;18.08;100.00;98291.47;5118995;28;19920;-67
2023/09/29 02:18:43;;;;;;;;;;;;;;;18.05;100.00;98291.28;5119591;28;19944;-66
2023/09/29 02:21:19;;;;;;;;;;;;;;;18.00;100.00;98292.19;5120074;28;19939;-66
2023/09/29 02:23:45;;;;;;;;;;;;;;;18.01;100.00;98293.00;5119158;28;19977;-67
2023/09/29 02:26:12;;;;;;;;;;;;;;;17.99;100.00;98287.88;5114486;28;19946;-67
2023/09/29 02:28:38;;;;;;;;;;;;;;;17.96;100.00;98295.78;5116696;28;19924;-67
2023/09/29 02:31:04;;;;;;;;;;;;;;;17.95;100.00;98300.38;5120235;28;19946;-67
2023/09/29 02:33:32;;;;;;;;;;;;;;;17.96;100.00;98295.78;5121828;28;19920;-67
2023/09/29 02:35:59;;;;;;;;;;;;;;;17.93;100.00;98299.09;5122624;28;19924;-67
2023/09/29 02:38:25;;;;;;;;;;;;;;;17.92;100.00;98294.81;5115468;28;19931;-67
2023/09/29 02:40:51;;;;;;;;;;;;;;;17.94;100.00;98295.31;5097007;28;20468;-67
2023/09/29 02:43:18;;;;;;;;;;;;;;;17.94;100.00;98292.59;5119361;28;19950;-66
2023/09/29 02:45:45;;;;;;;;;;;;;;;17.94;100.00;98293.41;5113875;28;19975;-66
2023/09/29 02:48:11;;;;;;;;;;;;;;;17.91;100.00;98291.31;5120212;28;19928;-66
2023/09/29 02:50:39;;;;;;;;;;;;;;;17.88;100.00;98288.41;5116111;28;19949;-66
2023/09/29 02:53:07;;;;;;;;;;;;;;;17.86;100.00;98296.78;5114180;28;19924;-66
2023/09/29 02:55:34;;;;;;;;;;;;;;;17.87;100.00;98290.28;5117311;28;19928;-66
2023/09/29 02:58:01;;;;;;;;;;;;;;;17.88;100.00;98291.09;5118935;28;19924;-66
2023/09/29 03:00:29;;;;;;;;;;;;;;;17.83;100.00;98289.28;5115849;28;19924;-66
2023/09/29 03:02:55;;;;;;;;;;;;;;;17.81;100.00;98288.78;5113606;28;19924;-67
2023/09/29 03:05:22;;;;;;;;;;;;;;;17.79;100.00;98291.00;5118679;28;19931;-66
2023/09/29 03:07:50;;;;;;;;;;;;;;;17.79;100.00;98288.31;5118570;28;19985;-67
2023/09/29 03:10:17;;;;;;;;;;;;;;;17.78;100.00;98289.41;5118658;28;19930;-66
2023/09/29 03:12:45;;;;;;;;;;;;;;;17.75;100.00;98293.50;5099928;28;19959;-66
2023/09/29 03:15:15;;;;;;;;;;;;;;;17.75;100.00;98295.41;5109352;28;20007;-66
2023/09/29 03:17:41;;;;;;;;;;;;;;;17.78;100.00;98289.41;5104151;28;19926;-66
2023/09/29 03:20:11;;;;;;;;;;;;;;;17.78;100.00;98282.09;5100023;28;19946;-66
2023/09/29 03:22:37;;;;;;;;;;;;;;;17.78;100.00;98287.50;5118230;28;20011;-66
2023/09/29 03:25:05;;;;;;;;;;;;;;;17.79;100.00;98288.31;5119600;28;20451;-66
2023/09/29 03:27:32;;;;;;;;;;;;;;;17.78;100.00;98282.09;5114878;28;19959;-66
2023/09/29 03:29:59;;;;;;;;;;;;;;;17.74;100.00;98285.69;5113282;28;19920;-66
2023/09/29 03:32:25;;;;;;;;;;;;;;;17.74;100.00;98291.09;5118051;28;19924;-66
2023/09/29 03:34:52;;;;;;;;;;;;;;;17.72;100.00;98287.91;5100152;28;19946;-66
2023/09/29 03:37:19;;;;;;;;;;;;;;;17.66;100.00;98287.19;5119497;28;19996;-66
2023/09/29 03:39:47;;;;;;;;;;;;;;;17.64;100.00;98291.31;5117587;28;19951;-66
2023/09/29 03:42:16;;;;;;;;;;;;;;;17.57;100.00;98293.59;5117408;28;19956;-66
2023/09/29 03:44:44;;;;;;;;;;;;;;;17.57;100.00;98289.00;5119683;28;20273;-66
2023/09/29 03:47:11;;;;;;;;;;;;;;;17.52;100.00;98282.84;5102944;28;19954;-66
2023/09/29 03:49:38;;;;;;;;;;;;;;;17.52;100.00;98285.53;5120904;28;19927;-66
2023/09/29 03:52:06;;;;;;;;;;;;;;;17.53;100.00;98289.84;5116428;28;19932;-66
2023/09/29 03:54:32;;;;;;;;;;;;;;;17.50;100.00;98290.44;5120707;28;19946;-66
2023/09/29 03:56:59;;;;;;;;;;;;;;;17.48;100.00;98298.06;5122286;28;19983;-66
2023/09/29 03:59:26;;;;;;;;;;;;;;;17.51;100.00;98300.97;5121706;28;19924;-66
2023/09/29 04:01:53;;;;;;;;;;;;;;;17.53;100.00;98314.16;5122742;28;19967;-66
2023/09/29 04:04:20;;;;;;;;;;;;;;;17.51;100.00;98316.34;5117050;28;19924;-66
2023/09/29 04:06:46;;;;;;;;;;;;;;;17.50;100.00;98314.75;5100874;28;20014;-65
2023/09/29 04:09:13;;;;;;;;;;;;;;;17.48;100.00;98308.84;5104162;28;19924;-65
2023/09/29 04:11:40;;;;;;;;;;;;;;;17.52;100.00;98315.25;5122229;28;19950;-66
2023/09/29 04:14:06;;;;;;;;;;;;;;;17.51;100.00;98314.47;5123252;28;19963;-66
2023/09/29 04:16:34;;;;;;;;;;;;;;;17.51;100.00;98310.97;5118446;28;19924;-66
2023/09/29 04:19:00;;;;;;;;;;;;;;;17.49;100.00;98311.25;5117072;28;20009;-65
2023/09/29 04:21:27;;;;;;;;;;;;;;;17.52;100.00;98315.25;5121502;28;19924;-65
2023/09/29 04:23:53;;;;;;;;;;;;;;;17.49;100.00;98315.84;5122009;28;19924;-66
2023/09/29 04:26:21;;;;;;;;;;;;;;;17.50;100.00;98328.25;5105253;28;19924;-66
2023/09/29 04:28:49;;;;;;;;;;;;;;;17.49;100.00;98321.22;5120721;28;19931;-66
2023/09/29 04:31:16;;;;;;;;;;;;;;;17.44;100.00;98329.44;5116826;28;19924;-66
2023/09/29 04:33:44;;;;;;;;;;;;;;;17.41;100.00;98330.03;5118983;28;19924;-66
2023/09/29 04:36:11;;;;;;;;;;;;;;;17.41;100.00;98321.94;5121480;28;19924;-66
2023/09/29 04:38:37;;;;;;;;;;;;;;;17.39;100.00;98329.53;5120325;28;19931;-66
2023/09/29 04:41:05;;;;;;;;;;;;;;;17.38;100.00;98336.03;5098624;28;19924;-66
2023/09/29 04:43:31;;;;;;;;;;;;;;;17.35;100.00;98328.50;5120386;28;19959;-66
2023/09/29 04:45:58;;;;;;;;;;;;;;;17.35;100.00;98325.81;5121255;28;19924;-66
2023/09/29 04:48:24;;;;;;;;;;;;;;;17.36;100.00;98322.03;5121291;28;19924;-66
2023/09/29 04:50:52;;;;;;;;;;;;;;;17.37;100.00;98326.31;5121362;28;19923;-66
2023/09/29 04:53:18;;;;;;;;;;;;;;;17.41;100.00;98324.63;5116068;28;19928;-66
2023/09/29 04:55:44;;;;;;;;;;;;;;;17.44;100.00;98324.03;5118367;28;19925;-66
2023/09/29 04:58:10;;;;;;;;;;;;;;;17.43;100.00;98327.81;5121132;28;19976;-66
2023/09/29 05:00:37;;;;;;;;;;;;;;;17.41;100.00;98316.53;5121363;28;19928;-66
2023/09/29 05:03:04;;;;;;;;;;;;;;;17.38;100.00;98320.63;5122328;28;19963;-66
2023/09/29 05:05:30;;;;;;;;;;;;;;;17.34;100.00;98319.59;5116847;28;19924;-66
2023/09/29 05:07:58;;;;;;;;;;;;;;;17.34;100.00;98326.91;5116075;28;19924;-67
2023/09/29 05:10:24;;;;;;;;;;;;;;;17.33;100.00;98319.94;5109349;28;19942;-67
2023/09/29 05:12:51;;;;;;;;;;;;;;;17.22;100.00;98321.97;5120954;28;19924;-67
2023/09/29 05:15:17;;;;;;;;;;;;;;;17.13;100.00;98313.75;5121960;28;19929;-67
2023/09/29 05:17:44;;;;;;;;;;;;;;;17.07;100.00;98314.13;5118989;28;19923;-66
2023/09/29 05:20:11;;;;;;;;;;;;;;;16.77;100.00;98331.63;5116134;28;19925;-66
2023/09/29 05:22:37;;;;;;;;;;;;;;;16.54;100.00;98332.44;5119011;28;19969;-66
2023/09/29 05:25:06;;;;;;;;;;;;;;;16.43;100.00;98320.22;5120716;28;19924;-66
2023/09/29 05:27:32;;;;;;;;;;;;;;;16.42;100.00;98329.38;5118430;28;19935;-67
2023/09/29 05:29:58;;;;;;;;;;;;;;;16.48;100.00;98328.22;5115693;28;19932;-66
2023/09/29 05:32:25;;;;;;;;;;;;;;;16.57;100.00;98327.31;5120363;28;19924;-66
2023/09/29 05:34:52;;;;;;;;;;;;;;;16.65;100.00;98328.53;5120701;28;19924;-66
2023/09/29 05:37:18;;;;;;;;;;;;;;;16.77;100.00;98331.63;5120267;28;19935;-66
2023/09/29 05:39:44;;;;;;;;;;;;;;;16.91;100.00;98337.06;5120032;28;19998;-66
2023/09/29 05:42:12;;;;;;;;;;;;;;;17.02;100.00;98325.81;5115126;28;19924;-66
2023/09/29 05:44:39;;;;;;;;;;;;;;;17.06;100.00;98329.53;5118140;28;19920;-66
2023/09/29 05:47:05;;;;;;;;;;;;;;;17.07;100.00;98344.63;5114446;28;19954;-66
2023/09/29 05:49:32;;;;;;;;;;;;;;;17.01;100.00;98343.09;5120052;28;19924;-66
2023/09/29 05:51:58;;;;;;;;;;;;;;;17.03;100.00;98345.50;5121345;28;19987;-66
2023/09/29 05:54:25;;;;;;;;;;;;;;;17.05;100.00;98356.81;5115495;28;19966;-66
2023/09/29 05:56:51;;;;;;;;;;;;;;;17.10;100.00;98351.34;5115949;28;19924;-67
2023/09/29 05:59:19;;;;;;;;;;;;;;;17.14;100.00;98350.44;5119729;28;20305;-67
2023/09/29 06:01:46;;;;;;;;;;;;;;;17.17;100.00;98357.16;5119624;28;19953;-67
2023/09/29 06:04:12;;;;;;;;;;;;;;;17.19;100.00;98354.97;5120614;28;19923;-67
2023/09/29 06:06:38;;;;;;;;;;;;;;;17.11;100.00;98361.03;5117349;28;19927;-67
2023/09/29 06:09:06;;;;;;;;;;;;;;;17.09;100.00;98366.72;5114937;28;19924;-67
2023/09/29 06:11:32;;;;;;;;;;;;;;;17.13;100.00;98373.13;5118221;28;19931;-67
2023/09/29 06:13:59;;;;;;;;;;;;;;;17.18;100.00;98373.03;5119335;28;19924;-67
2023/09/29 06:16:27;;;;;;;;;;;;;;;17.16;100.00;98367.16;5115983;28;19924;-66
2023/09/29 06:18:53;;;;;;;;;;;;;;;17.22;100.00;98365.97;5114310;28;19993;-67
2023/09/29 06:21:20;;;;;;;;;;;;;;;17.20;100.00;98364.66;5118890;28;19920;-66
2023/09/29 06:23:46;;;;;;;;;;;;;;;17.19;100.00;98366.56;5100837;28;19924;-66
2023/09/29 06:26:12;;;;;;;;;;;;;;;17.22;100.00;98371.38;5119050;28;19959;-66
2023/09/29 06:28:39;;;;;;;;;;;;;;;17.18;100.00;98377.63;5117750;28;19970;-67
2023/09/29 06:31:06;;;;;;;;;;;;;;;17.13;100.00;98375.03;5114059;28;19930;-67
2023/09/29 06:33:34;;;;;;;;;;;;;;;16.93;100.00;98380.75;5117832;28;19928;-67
2023/09/29 06:36:00;;;;;;;;;;;;;;;17.03;100.00;98380.56;5119060;28;19924;-67
2023/09/29 06:38:28;;;;;;;;;;;;;;;17.09;100.00;98388.31;5119158;28;19938;-66
2023/09/29 06:40:57;;;;;;;;;;;;;;;16.91;100.00;98386.44;5119729;28;19951;-67
2023/09/29 06:43:23;;;;;;;;;;;;;;;16.14;100.00;98385.78;5110806;28;19920;-67
2023/09/29 06:45:50;;;;;;;;;;;;;;;16.05;100.00;98384.81;5115302;28;19928;-67
2023/09/29 06:48:17;;;;;;;;;;;;;;;15.74;100.00;98388.91;5119177;28;19924;-67
2023/09/29 06:50:44;;;;;;;;;;;;;;;15.46;100.00;98393.19;5119072;28;20487;-67
2023/09/29 06:53:11;;;;;;;;;;;;;;;15.09;100.00;98398.31;5120203;28;19924;-67
2023/09/29 06:55:37;;;;;;;;;;;;;;;14.93;100.00;98394.94;5115730;28;20288;-67
2023/09/29 06:58:04;;;;;;;;;;;;;;;14.59;100.00;98397.53;5113664;28;19938;-66
2023/09/29 07:00:31;;;;;;;;;;;;;;;14.63;100.00;98388.94;5099174;28;19935;-66
2023/09/29 07:02:57;;;;;;;;;;;;;;;14.66;100.00;98396.44;5118271;28;19924;-67
2023/09/29 07:05:24;;;;;;;;;;;;;;;14.73;100.00;98399.63;5111467;28;19924;-67
2023/09/29 07:07:51;;;;;;;;;;;;;;;14.89;100.00;98396.56;5109773;28;19928;-66
2023/09/29 07:10:18;;;;;;;;;;;;;;;14.87;100.00;98389.84;5117762;28;19935;-66
2023/09/29 07:12:45;;;;;;;;;;;;;;;15.27;100.00;98388.75;5118453;28;19924;-66
2023/09/29 07:15:12;;;;;;;;;;;;;;;15.61;100.00;98384.19;5099979;28;19924;-66
2023/09/29 07:17:39;;;;;;;;;;;;;;;15.68;100.00;98397.31;5116913;28;19989;-65
2023/09/29 07:20:05;;;;;;;;;;;;;;;15.99;100.00;98396.75;5114774;28;19928;-66
2023/09/29 07:22:32;;;;;;;;;;;;;;;16.32;100.00;98407.66;5118017;28;19935;-66
2023/09/29 07:25:00;;;;;;;;;;;;;;;16.52;100.00;98412.84;5118656;28;20002;-67
2023/09/29 07:27:27;;;;;;;;;;;;;;;16.51;100.00;98414.72;5118425;28;19966;-66
2023/09/29 07:29:54;;;;;;;;;;;;;;;16.33;100.00;98417.38;5118721;28;19987;-66
2023/09/29 07:32:20;;;;;;;;;;;;;;;16.09;100.00;98407.38;5112927;28;19979;-66
2023/09/29 07:34:46;;;;;;;;;;;;;;;16.16;100.00;98413.25;5114769;28;19946;-66
2023/09/29 07:37:13;;;;;;;;;;;;;;;15.97;100.00;98419.63;5099813;28;19924;-66
2023/09/29 07:39:39;;;;;;;;;;;;;;;15.61;100.00;98416.50;5118222;28;19924;-67
2023/09/29 07:42:09;;;;;;;;;;;;;;;15.21;100.00;98411.41;5119399;28;19953;-67
2023/09/29 07:44:35;;;;;;;;;;;;;;;14.92;100.00;98416.72;5115168;28;19942;-67
2023/09/29 07:47:02;;;;;;;;;;;;;;;14.71;100.00;98426.78;5113196;28;19951;-67
2023/09/29 07:49:28;;;;;;;;;;;;;;;14.78;100.00;98418.41;5117281;28;20827;-67
2023/09/29 07:51:55;;;;;;;;;;;;;;;14.86;100.00;98413.25;5118498;28;19920;-67
2023/09/29 07:54:21;;;;;;;;;;;;;;;14.71;100.00;98412.53;5119768;28;19924;-65
2023/09/29 07:56:50;;;;;;;;;;;;;;;14.73;100.00;98421.13;5116678;28;19931;-66
2023/09/29 07:59:18;;;;;;;;;;;;;;;15.34;100.00;98426.94;5110606;28;19920;-67
2023/09/29 08:01:49;;;;;;;;;;;;;;;15.53;100.00;98427.88;5117854;28;19924;-67
2023/09/29 08:04:15;;;;;;;;;;;;;;;15.34;100.00;98427.72;5118085;28;19924;-66
2023/09/29 08:06:42;;;;;;;;;;;;;;;14.94;100.00;98428.81;5099267;28;19955;-66
2023/09/29 08:09:09;;;;;;;;;;;;;;;15.11;100.00;98426.53;5113367;28;19946;-66
2023/09/29 08:11:36;;;;;;;;;;;;;;;15.51;100.00;98425.47;5116483;28;19924;-66
2023/09/29 08:14:04;;;;;;;;;;;;;;;15.59;100.00;98432.94;5117851;28;19987;-68
2023/09/29 08:16:32;;;;;;;;;;;;;;;15.33;100.00;98426.13;5111615;28;19924;-66
2023/09/29 08:18:58;;;;;;;;;;;;;;;15.16;100.00;98438.34;5118942;28;19924;-66
2023/09/29 08:21:25;;;;;;;;;;;;;;;15.37;100.00;98445.19;5112744;28;19942;-67
2023/09/29 08:23:51;;;;;;;;;;;;;;;15.51;100.00;98443.50;5113635;28;19948;-67
2023/09/29 08:26:17;;;;;;;;;;;;;;;15.64;100.00;98442.84;5119696;28;19924;-67
2023/09/29 08:28:44;;;;;;;;;;;;;;;15.82;100.00;98455.63;5121560;28;19971;-67
2023/09/29 08:31:14;;;;;;;;;;;;;;;15.48;100.00;98449.44;5122755;28;19928;-67
2023/09/29 08:33:41;;;;;;;;;;;;;;;15.17;100.00;98448.81;5118927;28;19927;-67
2023/09/29 08:36:08;;;;;;;;;;;;;;;15.20;100.00;98464.41;5116370;28;19924;-66
2023/09/29 08:38:35;;;;;;;;;;;;;;;15.90;100.00;98470.38;5119628;28;20026;-67
2023/09/29 08:41:03;;;;;;;;;;;;;;;16.26;100.00;98474.31;5121329;28;19936;-67
2023/09/29 08:43:30;;;;;;;;;;;;;;;16.18;100.00;98464.94;5122521;28;20004;-67
2023/09/29 08:45:58;;;;;;;;;;;;;;;15.64;100.00;98457.13;5112673;28;19954;-67
2023/09/29 08:48:25;;;;;;;;;;;;;;;15.46;100.00;98473.13;5097449;28;19931;-67
2023/09/29 08:50:55;;;;;;;;;;;;;;;15.09;100.00;98473.63;5121082;28;19924;-67
2023/09/29 08:53:23;;;;;;;;;;;;;;;15.18;100.00;98474.66;5121661;28;19927;-67
2023/09/29 08:55:50;;;;;;;;;;;;;;;15.87;100.00;98473.63;5121161;28;19927;-66
2023/09/29 08:58:16;;;;;;;;;;;;;;;16.43;100.00;98476.56;5115802;28;19924;-67
2023/09/29 09:00:43;;;;;;;;;;;;;;;16.73;100.00;98473.53;5117865;28;19928;-66
2023/09/29 09:03:09;;;;;;;;;;;;;;;16.82;100.00;98473.69;5120408;28;19948;-67
2023/09/29 09:05:36;;;;;;;;;;;;;;;16.15;100.00;98459.34;5120544;28;19928;-67
2023/09/29 09:08:04;;;;;;;;;;;;;;;16.08;100.00;98459.69;5121697;28;19984;-67
2023/09/29 09:10:31;;;;;;;;;;;;;;;16.02;100.00;98458.13;5116960;28;19930;-67
2023/09/29 09:12:58;;;;;;;;;;;;;;;15.97;100.00;98458.16;5115767;28;19944;-65
2023/09/29 09:15:25;;;;;;;;;;;;;;;16.02;100.00;98457.31;5106670;28;20318;-67
2023/09/29 09:17:51;;;;;;;;;;;;;;;15.91;100.00;98459.28;5120435;28;19928;-67
2023/09/29 09:20:18;;;;;;;;;;;;;;;15.80;100.00;98457.00;5121584;28;19930;-66
2023/09/29 09:22:45;;;;;;;;;;;;;;;15.79;100.00;98458.06;5118038;28;19924;-67
2023/09/29 09:25:14;;;;;;;;;;;;;;;15.88;100.00;98442.91;5096826;28;19935;-67
2023/09/29 09:27:41;;;;;;;;;;;;;;;15.88;100.00;98450.97;5117527;28;19935;-67
2023/09/29 09:30:19;;;;;;;;;;;;;;;15.95;100.00;98444.19;5120013;28;19977;-67
2023/09/29 09:32:46;;;;;;;;;;;;;;;16.05;100.00;98440.59;5120904;28;19972;-67
2023/09/29 09:35:12;;;;;;;;;;;;;;;16.33;100.00;98442.44;5121274;28;19924;-67
2023/09/29 09:37:39;;;;;;;;;;;;;;;16.50;100.00;98441.97;5116264;28;19930;-67
2023/09/29 09:40:07;;;;;;;;;;;;;;;16.70;100.00;98445.25;5114513;28;19952;-67
2023/09/29 09:42:35;;;;;;;;;;;;;;;16.85;100.00;98438.84;5120341;28;19924;-67
2023/09/29 09:45:02;;;;;;;;;;;;;;;16.87;100.00;98433.94;5121566;28;19928;-67
2023/09/29 09:47:29;;;;;;;;;;;;;;;16.90;100.00;98421.78;5117546;28;19928;-67
2023/09/29 09:49:56;;;;;;;;;;;;;;;16.88;100.00;98419.38;5117301;28;19935;-67
2023/09/29 09:52:24;;;;;;;;;;;;;;;16.99;100.00;98414.66;5120600;28;19920;-67
2023/09/29 09:54:52;;;;;;;;;;;;;;;17.07;100.00;98420.19;5120247;28;19925;-67
2023/09/29 09:57:20;;;;;;;;;;;;;;;17.25;100.00;98421.25;5120464;28;19928;-67
2023/09/29 09:59:51;;;;;;;;;;;;;;;17.30;100.00;98428.50;5118811;28;20398;-67
2023/09/29 10:02:19;;;;;;;;;;;;;;;17.28;100.00;98424.19;5114962;28;19966;-67
2023/09/29 10:04:46;;;;;;;;;;;;;;;17.66;100.00;98421.44;5116806;28;19924;-67
2023/09/29 10:07:14;;;;;;;;;;;;;;;17.72;100.00;98418.38;5119815;28;19924;-67
2023/09/29 10:09:43;;;;;;;;;;;;;;;17.73;100.00;98419.94;5119980;28;19943;-67
2023/09/29 10:12:10;;;;;;;;;;;;;;;17.83;100.00;98410.88;5121646;28;19990;-67
2023/09/29 10:14:44;;;;;;;;;;;;;;;17.94;100.00;98417.72;5116610;28;19924;-68
2023/09/29 10:17:13;;;;;;;;;;;;;;;18.22;100.00;98413.94;5096291;28;19928;-67
2023/09/29 10:19:39;;;;;;;;;;;;;;;18.51;100.00;98410.13;5117075;28;19931;-67
2023/09/29 10:22:07;;;;;;;;;;;;;;;18.56;100.00;98404.63;5119144;28;19939;-68
2023/09/29 10:24:33;;;;;;;;;;;;;;;18.65;100.00;98394.69;5120365;28;19985;-67
2023/09/29 10:27:00;;;;;;;;;;;;;;;18.64;100.00;98390.38;5118903;28;19924;-67
2023/09/29 10:29:29;;;;;;;;;;;;;;;18.73;100.00;98397.47;5110367;28;19924;-66
2023/09/29 10:32:07;;;;;;;;;;;;;;;18.77;100.00;98397.69;5118663;28;19924;-68
2023/09/29 10:34:35;;;;;;;;;;;;;;;18.76;100.00;98390.66;5112104;28;20094;-67
2023/09/29 10:37:02;;;;;;;;;;;;;;;18.92;100.00;98381.09;5102127;28;19945;-66
2023/09/29 10:39:29;;;;;;;;;;;;;;;19.25;100.00;98387.88;5114852;28;19945;-67
2023/09/29 10:41:59;;;;;;;;;;;;;;;19.27;100.00;98382.97;5114484;28;19920;-67
2023/09/29 10:44:28;;;;;;;;;;;;;;;19.30;100.00;98379.66;5104009;28;19995;-67
2023/09/29 10:46:54;;;;;;;;;;;;;;;19.37;100.00;98377.28;5112459;28;19924;-67
2023/09/29 10:49:20;;;;;;;;;;;;;;;19.40;100.00;98374.00;5118991;28;19938;-67
2023/09/29 10:51:48;;;;;;;;;;;;;;;19.56;100.00;98368.22;5117995;28;19928;-66
2023/09/29 10:54:15;;;;;;;;;;;;;;;19.59;100.00;98367.59;5113735;28;19924;-66
2023/09/29 10:56:47;;;;;;;;;;;;;;;19.60;100.00;98361.06;5098313;28;19928;-66
2023/09/29 10:59:14;;;;;;;;;;;;;;;19.79;100.00;98358.94;5118477;28;19924;-67
2023/09/29 11:01:44;;;;;;;;;;;;;;;19.88;100.00;98355.16;5118661;28;19928;-67
2023/09/29 11:04:11;;;;;;;;;;;;;;;19.92;100.00;98352.63;5119900;28;19928;-66
2023/09/29 11:06:41;;;;;;;;;;;;;;;19.94;100.00;98353.09;5119186;28;19924;-67
2023/09/29 11:09:10;;;;;;;;;;;;;;;20.08;100.00;98353.00;5095648;28;19924;-67
2023/09/29 11:11:39;;;;;;;;;;;;;;;20.13;100.00;98356.38;5116887;28;19924;-67
2023/09/29 11:14:05;;;;;;;;;;;;;;;20.12;100.00;98351.25;5118480;28;19927;-67
2023/09/29 11:16:32;;;;;;;;;;;;;;;20.14;100.00;98347.13;5097515;28;20056;-67
2023/09/29 11:19:07;;;;;;;;;;;;;;;20.25;100.00;98334.88;5094419;28;19924;-67
2023/09/29 11:21:34;;;;;;;;;;;;;;;20.39;100.00;98332.84;5116467;28;19966;-67
2023/09/29 11:24:04;;;;;;;;;;;;;;;20.47;100.00;98328.56;5117814;28;19950;-67
2023/09/29 11:26:32;;;;;;;;;;;;;;;20.54;100.00;98328.09;5118176;28;19943;-67
2023/09/29 11:28:59;;;;;;;;;;;;;;;20.68;100.00;98318.69;5119495;28;19962;-68
2023/09/29 11:31:26;;;;;;;;;;;;;;;20.85;100.00;98335.00;5112725;28;19924;-67
2023/09/29 11:33:52;;;;;;;;;;;;;;;20.86;100.00;98333.84;5114129;28;20014;-67
2023/09/29 11:36:21;;;;;;;;;;;;;;;20.98;100.00;98339.44;5117884;28;19928;-67
2023/09/29 11:38:47;;;;;;;;;;;;;;;21.12;100.00;98331.16;5117801;28;19943;-68
2023/09/29 11:41:15;;;;;;;;;;;;;;;21.14;100.00;98330.81;5101438;28;19955;-67
2023/09/29 11:43:43;;;;;;;;;;;;;;;21.19;100.00;98323.34;5115577;28;19932;-67
2023/09/29 11:46:09;;;;;;;;;;;;;;;21.24;100.00;98304.13;5113215;28;19924;-68
2023/09/29 11:48:36;;;;;;;;;;;;;;;21.36;100.00;98301.56;5116508;28;19924;-67
2023/09/29 11:51:03;;;;;;;;;;;;;;;21.45;100.00;98304.25;5117922;28;19938;-67
2023/09/29 11:53:29;;;;;;;;;;;;;;;21.52;100.00;98299.13;5119134;28;19924;-67
2023/09/29 11:55:56;;;;;;;;;;;;;;;21.61;100.00;98296.38;5099929;28;19945;-67
2023/09/29 11:58:23;;;;;;;;;;;;;;;21.67;100.00;98298.59;5112848;28;19920;-67
2023/09/29 12:00:51;;;;;;;;;;;;;;;21.76;100.00;98290.38;5115296;28;19924;-68
2023/09/29 12:03:21;;;;;;;;;;;;;;;21.82;100.00;98289.09;5122332;28;19920;-68
2023/09/29 12:05:49;;;;;;;;;;;;;;;21.84;100.00;98284.13;5123371;28;19983;-68
2023/09/29 12:08:16;;;;;;;;;;;;;;;21.97;100.00;98292.06;5122817;28;20014;-67
2023/09/29 12:10:43;;;;;;;;;;;;;;;22.00;100.00;98287.94;5113790;28;19924;-68
2023/09/29 12:13:10;;;;;;;;;;;;;;;22.13;100.00;98281.44;5121730;28;19928;-67
2023/09/29 12:15:36;;;;;;;;;;;;;;;22.16;100.00;98280.78;5121615;28;19925;-68
2023/09/29 12:18:04;;;;;;;;;;;;;;;22.09;100.00;98275.06;5123040;28;19969;-68
2023/09/29 12:20:31;;;;;;;;;;;;;;;22.08;100.00;98278.09;5118633;28;19961;-68
2023/09/29 12:22:59;;;;;;;;;;;;;;;22.09;100.00;98275.06;5117203;28;19924;-68
2023/09/29 12:25:25;;;;;;;;;;;;;;;22.29;100.00;98273.50;5107439;28;19931;-67
2023/09/29 12:27:51;;;;;;;;;;;;;;;22.43;100.00;98268.63;5121643;28;19975;-67
2023/09/29 12:30:18;;;;;;;;;;;;;;;22.53;100.00;98260.84;5104810;28;19980;-68
2023/09/29 12:32:45;;;;;;;;;;;;;;;22.68;100.00;98247.78;5120840;28;19924;-68
2023/09/29 12:35:13;;;;;;;;;;;;;;;22.61;100.00;98251.00;5117472;28;19969;-68